Artemis — PFCB — position and weather

sailwx.info

Track history (hours):
 
Tides and Currents Weather Stations Pressure Air Temp Water Temp Dewpoint Dewpoint Depression Visibility Wind Speed Wind Dir Waves Ship Positions

Artemis (Netherlands)

Ship's website: http://www.tallship-company.com/artemis/gb_artemis.htm

Last reported at 2017-Aug-22 22:11 UTC. Time now 2017-Aug-22 22:38 UTC.
Position N 54°40' E 010°02'.

Length 59 m; draft 3.4 m.

Type: Sailing vessel. MMSI: 244875000.

Date/timePositionNaut miles runAvg speedWind from/ knotsBaromVisibWave heightAir tempDewpointWater temp
2017-Aug-22 22:11N 54°40' E 010°02'0 0.0
2017-Aug-22 21:59N 54°40' E 010°02'0 0.0
2017-Aug-22 21:29N 54°40' E 010°02'0 0.0
2017-Aug-22 20:59N 54°40' E 010°02'0 0.0
2017-Aug-22 20:29N 54°40' E 010°02'0 0.0
2017-Aug-22 19:59N 54°40' E 010°02'0 0.0
2017-Aug-22 19:29N 54°40' E 010°02'0 0.0
2017-Aug-22 18:59N 54°40' E 010°02'0 0.0
2017-Aug-22 18:29N 54°40' E 010°02'0 0.0
2017-Aug-22 17:53N 54°40' E 010°02'0 0.0
2017-Aug-22 17:29N 54°40' E 010°02'0 0.0
2017-Aug-22 16:59N 54°40' E 010°02'0 0.0
2017-Aug-22 16:30N 54°40' E 010°02'1 2.2
2017-Aug-22 16:00N 54°40' E 010°03'3 6.5
2017-Aug-22 15:30N 54°36' E 010°04'4 3.7
2017-Aug-22 14:30N 54°38' E 010°10'3 5.4
2017-Aug-22 14:00N 54°40' E 010°14'3 5.4
2017-Aug-22 13:30N 54°42' E 010°17'2 4.9
2017-Aug-22 13:00N 54°43' E 010°20'2 4.0
2017-Aug-22 12:30N 54°45' E 010°22'2 3.2
2017-Aug-22 12:00N 54°46' E 010°24'2 4.5
2017-Aug-22 11:30N 54°47' E 010°27'2 4.8
2017-Aug-22 11:00N 54°49' E 010°30'2 3.9
2017-Aug-22 10:30N 54°50' E 010°33'1 2.6
2017-Aug-22 10:00N 54°51' E 010°31'0 0.0
2017-Aug-22 09:28N 54°51' E 010°31'0 0.0
2017-Aug-22 02:59N 54°51' E 010°31'0 0.0
2017-Aug-22 02:29N 54°51' E 010°31'0 0.0
2017-Aug-21 18:35N 54°51' E 010°31'0 0.0
2017-Aug-21 15:11N 54°51' E 010°31'0 0.0
2017-Aug-21 14:59N 54°51' E 010°31'0 0.0
2017-Aug-21 14:29N 54°51' E 010°31'1 1.5
2017-Aug-21 14:00N 54°51' E 010°32'2 3.1
2017-Aug-21 13:30N 54°49' E 010°31'3 5.6
2017-Aug-21 13:00N 54°48' E 010°27'28 1.2
2017-Aug-20 13:27N 54°22' E 010°09'11 4.8
2017-Aug-20 11:09N 54°33' E 010°11'1 5.5
2017-Aug-20 11:00N 54°34' E 010°11'3 5.9
2017-Aug-20 10:30N 54°36' E 010°09'16 0.8
2017-Aug-19 13:17N 54°50' E 009°53'7 6.0
2017-Aug-19 12:05N 54°44' E 010°01'3 6.7
2017-Aug-19 11:40N 54°42' E 010°03'1 6.9
2017-Aug-19 11:30N 54°40' E 010°03'3 5.8
2017-Aug-19 11:00N 54°38' E 010°03'16 0.4
2017-Aug-17 15:18N 54°22' E 010°09'6 3.1
2017-Aug-17 13:22N 54°28' E 010°13'2 5.2
2017-Aug-17 12:59N 54°29' E 010°15'2 4.8
2017-Aug-17 12:30N 54°31' E 010°16'2 3.7
2017-Aug-17 12:00N 54°33' E 010°19'2 3.1
2017-Aug-17 11:30N 54°32' E 010°16'2 4.6
2017-Aug-17 11:00N 54°31' E 010°13'2 3.9
2017-Aug-17 10:29N 54°31' E 010°09'2 4.3
2017-Aug-17 09:59N 54°30' E 010°06'3 4.4
2017-Aug-17 09:24N 54°30' E 010°01'2 4.0
2017-Aug-17 08:50N 54°29' E 009°58'1 3.3
2017-Aug-17 08:27N 54°29' E 009°56'1 2.4
2017-Aug-17 07:54N 54°28' E 009°53'2 0.3
2017-Aug-17 01:37N 54°28' E 009°50'0 0.0
2017-Aug-17 01:28N 54°28' E 009°50'0 0.0
2017-Aug-17 00:19N 54°28' E 009°50'0 0.0
2017-Aug-16 23:58N 54°28' E 009°50'0 0.0
2017-Aug-16 23:22N 54°28' E 009°50'0 0.0
2017-Aug-16 22:55N 54°28' E 009°50'0 0.0
2017-Aug-16 22:28N 54°28' E 009°50'1 0.2
2017-Aug-16 16:48N 54°28' E 009°52'3 6.4
2017-Aug-16 16:23N 54°29' E 009°57'3 7.0
2017-Aug-16 16:00N 54°31' E 010°01'3 5.7
2017-Aug-16 15:30N 54°33' E 010°04'4 7.4
2017-Aug-16 15:00N 54°35' E 010°09'4 7.2
2017-Aug-16 14:30N 54°37' E 010°14'4 7.0
2017-Aug-16 14:00N 54°39' E 010°18'3 5.6
2017-Aug-16 13:30N 54°41' E 010°22'3 5.9
2017-Aug-16 13:00N 54°44' E 010°25'2 5.0
2017-Aug-16 12:30N 54°45' E 010°28'1 3.0
2017-Aug-16 12:00N 54°47' E 010°30'1 1.9
2017-Aug-16 11:30N 54°47' E 010°30'1 2.7
2017-Aug-16 11:00N 54°49' E 010°31'1 2.2
2017-Aug-16 10:30N 54°50' E 010°32'2 3.4
2017-Aug-16 10:00N 54°51' E 010°31'0 0.0
2017-Aug-16 09:30N 54°51' E 010°31'0 0.0
2017-Aug-16 09:00N 54°51' E 010°31'0 0.0
2017-Aug-16 08:30N 54°51' E 010°31'0 0.0
2017-Aug-16 08:00N 54°51' E 010°31'0 0.0
2017-Aug-16 07:30N 54°51' E 010°31'0 0.0
2017-Aug-16 07:00N 54°51' E 010°31'0 0.0
2017-Aug-16 06:30N 54°51' E 010°31'0 0.0
2017-Aug-16 06:00N 54°51' E 010°31'0 0.0
2017-Aug-16 05:30N 54°51' E 010°31'0 0.0
2017-Aug-16 05:00N 54°51' E 010°31'0 0.0
2017-Aug-16 04:30N 54°51' E 010°31'0 0.0
2017-Aug-16 04:00N 54°51' E 010°31'0 0.0
2017-Aug-16 03:30N 54°51' E 010°31'0 0.0
2017-Aug-16 03:00N 54°51' E 010°31'0 0.0
2017-Aug-16 02:30N 54°51' E 010°31'0 0.0
2017-Aug-16 02:00N 54°51' E 010°31'0 0.0
2017-Aug-16 01:30N 54°51' E 010°31'0 0.0
2017-Aug-16 00:57N 54°51' E 010°31'0 0.0
2017-Aug-16 00:30N 54°51' E 010°31'0 0.0
2017-Aug-15 23:57N 54°51' E 010°31'0 0.0
2017-Aug-15 23:27N 54°51' E 010°31'0 0.0
2017-Aug-15 22:57N 54°51' E 010°31'0 0.0
2017-Aug-15 22:30N 54°51' E 010°31'0 0.0
2017-Aug-15 22:00N 54°51' E 010°31'0 0.0
2017-Aug-15 21:30N 54°51' E 010°31'0 0.0
2017-Aug-15 20:57N 54°51' E 010°31'0 0.0
2017-Aug-15 20:30N 54°51' E 010°31'0 0.0
2017-Aug-15 20:00N 54°51' E 010°31'0 0.0
2017-Aug-15 19:30N 54°51' E 010°31'0 0.0
2017-Aug-15 19:00N 54°51' E 010°31'0 0.0
2017-Aug-15 18:30N 54°51' E 010°31'0 0.0
2017-Aug-15 18:00N 54°51' E 010°31'2 3.3
2017-Aug-15 17:31N 54°50' E 010°33'4 7.1
2017-Aug-15 17:00N 54°47' E 010°36'4 7.4
2017-Aug-15 16:30N 54°44' E 010°39'3 6.9
2017-Aug-15 16:00N 54°42' E 010°44'4 7.9
2017-Aug-15 15:30N 54°40' E 010°50'4 8.3
2017-Aug-15 15:00N 54°38' E 010°56'4 7.9
2017-Aug-15 14:30N 54°36' E 011°02'4 7.3
2017-Aug-15 14:00N 54°34' E 011°07'3 6.3
2017-Aug-15 13:30N 54°32' E 011°12'3 5.6
2017-Aug-15 13:00N 54°31' E 011°16'3 6.7
2017-Aug-15 12:31N 54°28' E 011°19'4 7.9
2017-Aug-15 12:01N 54°25' E 011°22'4 7.5
2017-Aug-15 11:31N 54°21' E 011°19'3 5.9
2017-Aug-15 11:01N 54°19' E 011°16'3 5.0
2017-Aug-15 10:30N 54°17' E 011°14'2 3.8
2017-Aug-15 10:00N 54°15' E 011°12'2 4.3
2017-Aug-15 09:30N 54°13' E 011°11'2 4.6
2017-Aug-15 09:01N 54°11' E 011°09'3 6.1
2017-Aug-15 08:31N 54°08' E 011°06'2 4.6
2017-Aug-15 08:00N 54°06' E 011°04'3 5.2
2017-Aug-15 07:30N 54°05' E 011°01'6 0.4
2017-Aug-14 15:07N 54°04' E 011°12'1 8.2
2017-Aug-14 15:00N 54°04' E 011°13'4 8.1
2017-Aug-14 14:30N 54°06' E 011°20'4 7.9
2017-Aug-14 14:00N 54°07' E 011°26'11 7.1
2017-Aug-14 12:24N 54°10' E 011°45'4 6.6
2017-Aug-14 11:44N 54°11' E 011°52'2 6.2
2017-Aug-14 11:28N 54°11' E 011°55'9 4.5
2017-Aug-14 09:32N 54°06' E 012°07'0 5.5
2017-Aug-14 09:31N 54°06' E 012°07'0 0.8
2017-Aug-14 09:01N 54°06' E 012°07'0 0.0
2017-Aug-14 08:25N 54°06' E 012°07'0 0.0
2017-Aug-14 06:31N 54°06' E 012°07'0 0.0
2017-Aug-14 06:22N 54°06' E 012°07'0 0.0
2017-Aug-14 01:16N 54°06' E 012°07'0 0.0
2017-Aug-14 00:58N 54°06' E 012°07'0 0.0
2017-Aug-13 18:55N 54°06' E 012°07'0 0.0
2017-Aug-13 18:13N 54°06' E 012°07'0 0.0
2017-Aug-13 17:01N 54°06' E 012°07'0 0.1
2017-Aug-13 16:58N 54°06' E 012°07'0 0.0
2017-Aug-13 16:28N 54°06' E 012°07'0 0.3
2017-Aug-13 15:20N 54°06' E 012°08'2 4.9
2017-Aug-13 14:50N 54°08' E 012°06'2 6.2
2017-Aug-13 14:27N 54°10' E 012°06'3 6.0
2017-Aug-13 14:00N 54°13' E 012°06'2 3.3
2017-Aug-13 13:15N 54°10' E 012°06'1 5.2
2017-Aug-13 13:00N 54°09' E 012°06'3 4.4
2017-Aug-13 12:24N 54°06' E 012°06'1 0.4
2017-Aug-13 10:45N 54°06' E 012°07'4 7.1
2017-Aug-13 10:15N 54°10' E 012°06'2 7.2
2017-Aug-13 09:59N 54°11' E 012°05'2 4.1
2017-Aug-13 09:27N 54°14' E 012°05'2 4.4
2017-Aug-13 08:58N 54°11' E 012°05'2 4.0
2017-Aug-13 08:30N 54°10' E 012°06'3 4.2
2017-Aug-13 07:45N 54°06' E 012°06'  
Track history (hours):
 
Tides and Currents Weather Stations Pressure Air Temp Water Temp Dewpoint Dewpoint Depression Visibility Wind Speed Wind Dir Waves Ship Positions

Artemis (Netherlands)

Ship's website: http://www.tallship-company.com/artemis/gb_artemis.htm

Last reported at 2017-Aug-22 22:11 UTC. Time now 2017-Aug-22 22:38 UTC.
Position N 54°40' E 010°02'.

Length 59 m; draft 3.4 m.

Type: Sailing vessel. MMSI: 244875000.

Date/timePositionNaut miles runAvg speedWind from/ knotsBaromVisibWave heightAir tempDewpointWater temp
2017-Aug-22 22:11N 54°40' E 010°02'0 0.0
2017-Aug-22 21:59N 54°40' E 010°02'0 0.0
2017-Aug-22 21:29N 54°40' E 010°02'0 0.0
2017-Aug-22 20:59N 54°40' E 010°02'0 0.0
2017-Aug-22 20:29N 54°40' E 010°02'0 0.0
2017-Aug-22 19:59N 54°40' E 010°02'0 0.0
2017-Aug-22 19:29N 54°40' E 010°02'0 0.0
2017-Aug-22 18:59N 54°40' E 010°02'0 0.0
2017-Aug-22 18:29N 54°40' E 010°02'0 0.0
2017-Aug-22 17:53N 54°40' E 010°02'0 0.0
2017-Aug-22 17:29N 54°40' E 010°02'0 0.0
2017-Aug-22 16:59N 54°40' E 010°02'0 0.0
2017-Aug-22 16:30N 54°40' E 010°02'1 2.2
2017-Aug-22 16:00N 54°40' E 010°03'3 6.5
2017-Aug-22 15:30N 54°36' E 010°04'4 3.7
2017-Aug-22 14:30N 54°38' E 010°10'3 5.4
2017-Aug-22 14:00N 54°40' E 010°14'3 5.4
2017-Aug-22 13:30N 54°42' E 010°17'2 4.9
2017-Aug-22 13:00N 54°43' E 010°20'2 4.0
2017-Aug-22 12:30N 54°45' E 010°22'2 3.2
2017-Aug-22 12:00N 54°46' E 010°24'2 4.5
2017-Aug-22 11:30N 54°47' E 010°27'2 4.8
2017-Aug-22 11:00N 54°49' E 010°30'2 3.9
2017-Aug-22 10:30N 54°50' E 010°33'1 2.6
2017-Aug-22 10:00N 54°51' E 010°31'0 0.0
2017-Aug-22 09:28N 54°51' E 010°31'0 0.0
2017-Aug-22 02:59N 54°51' E 010°31'0 0.0
2017-Aug-22 02:29N 54°51' E 010°31'0 0.0
2017-Aug-21 18:35N 54°51' E 010°31'0 0.0
2017-Aug-21 15:11N 54°51' E 010°31'0 0.0
2017-Aug-21 14:59N 54°51' E 010°31'0 0.0
2017-Aug-21 14:29N 54°51' E 010°31'1 1.5
2017-Aug-21 14:00N 54°51' E 010°32'2 3.1
2017-Aug-21 13:30N 54°49' E 010°31'3 5.6
2017-Aug-21 13:00N 54°48' E 010°27'28 1.2
2017-Aug-20 13:27N 54°22' E 010°09'11 4.8
2017-Aug-20 11:09N 54°33' E 010°11'1 5.5
2017-Aug-20 11:00N 54°34' E 010°11'3 5.9
2017-Aug-20 10:30N 54°36' E 010°09'16 0.8
2017-Aug-19 13:17N 54°50' E 009°53'7 6.0
2017-Aug-19 12:05N 54°44' E 010°01'3 6.7
2017-Aug-19 11:40N 54°42' E 010°03'1 6.9
2017-Aug-19 11:30N 54°40' E 010°03'3 5.8
2017-Aug-19 11:00N 54°38' E 010°03'16 0.4
2017-Aug-17 15:18N 54°22' E 010°09'6 3.1
2017-Aug-17 13:22N 54°28' E 010°13'2 5.2
2017-Aug-17 12:59N 54°29' E 010°15'2 4.8
2017-Aug-17 12:30N 54°31' E 010°16'2 3.7
2017-Aug-17 12:00N 54°33' E 010°19'2 3.1
2017-Aug-17 11:30N 54°32' E 010°16'2 4.6
2017-Aug-17 11:00N 54°31' E 010°13'2 3.9
2017-Aug-17 10:29N 54°31' E 010°09'2 4.3
2017-Aug-17 09:59N 54°30' E 010°06'3 4.4
2017-Aug-17 09:24N 54°30' E 010°01'2 4.0
2017-Aug-17 08:50N 54°29' E 009°58'1 3.3
2017-Aug-17 08:27N 54°29' E 009°56'1 2.4
2017-Aug-17 07:54N 54°28' E 009°53'2 0.3
2017-Aug-17 01:37N 54°28' E 009°50'0 0.0
2017-Aug-17 01:28N 54°28' E 009°50'0 0.0
2017-Aug-17 00:19N 54°28' E 009°50'0 0.0
2017-Aug-16 23:58N 54°28' E 009°50'0 0.0
2017-Aug-16 23:22N 54°28' E 009°50'0 0.0
2017-Aug-16 22:55N 54°28' E 009°50'0 0.0
2017-Aug-16 22:28N 54°28' E 009°50'1 0.2
2017-Aug-16 16:48N 54°28' E 009°52'3 6.4
2017-Aug-16 16:23N 54°29' E 009°57'3 7.0
2017-Aug-16 16:00N 54°31' E 010°01'3 5.7
2017-Aug-16 15:30N 54°33' E 010°04'4 7.4
2017-Aug-16 15:00N 54°35' E 010°09'4 7.2
2017-Aug-16 14:30N 54°37' E 010°14'4 7.0
2017-Aug-16 14:00N 54°39' E 010°18'3 5.6
2017-Aug-16 13:30N 54°41' E 010°22'3 5.9
2017-Aug-16 13:00N 54°44' E 010°25'2 5.0
2017-Aug-16 12:30N 54°45' E 010°28'1 3.0
2017-Aug-16 12:00N 54°47' E 010°30'1 1.9
2017-Aug-16 11:30N 54°47' E 010°30'1 2.7
2017-Aug-16 11:00N 54°49' E 010°31'1 2.2
2017-Aug-16 10:30N 54°50' E 010°32'2 3.4
2017-Aug-16 10:00N 54°51' E 010°31'0 0.0
2017-Aug-16 09:30N 54°51' E 010°31'0 0.0
2017-Aug-16 09:00N 54°51' E 010°31'0 0.0
2017-Aug-16 08:30N 54°51' E 010°31'0 0.0
2017-Aug-16 08:00N 54°51' E 010°31'0 0.0
2017-Aug-16 07:30N 54°51' E 010°31'0 0.0
2017-Aug-16 07:00N 54°51' E 010°31'0 0.0
2017-Aug-16 06:30N 54°51' E 010°31'0 0.0
2017-Aug-16 06:00N 54°51' E 010°31'0 0.0
2017-Aug-16 05:30N 54°51' E 010°31'0 0.0
2017-Aug-16 05:00N 54°51' E 010°31'0 0.0
2017-Aug-16 04:30N 54°51' E 010°31'0 0.0
2017-Aug-16 04:00N 54°51' E 010°31'0 0.0
2017-Aug-16 03:30N 54°51' E 010°31'0 0.0
2017-Aug-16 03:00N 54°51' E 010°31'0 0.0
2017-Aug-16 02:30N 54°51' E 010°31'0 0.0
2017-Aug-16 02:00N 54°51' E 010°31'0 0.0
2017-Aug-16 01:30N 54°51' E 010°31'0 0.0
2017-Aug-16 00:57N 54°51' E 010°31'0 0.0
2017-Aug-16 00:30N 54°51' E 010°31'0 0.0
2017-Aug-15 23:57N 54°51' E 010°31'0 0.0
2017-Aug-15 23:27N 54°51' E 010°31'0 0.0
2017-Aug-15 22:57N 54°51' E 010°31'0 0.0
2017-Aug-15 22:30N 54°51' E 010°31'0 0.0
2017-Aug-15 22:00N 54°51' E 010°31'0 0.0
2017-Aug-15 21:30N 54°51' E 010°31'0 0.0
2017-Aug-15 20:57N 54°51' E 010°31'0 0.0
2017-Aug-15 20:30N 54°51' E 010°31'0 0.0
2017-Aug-15 20:00N 54°51' E 010°31'0 0.0
2017-Aug-15 19:30N 54°51' E 010°31'0 0.0
2017-Aug-15 19:00N 54°51' E 010°31'0 0.0
2017-Aug-15 18:30N 54°51' E 010°31'0 0.0
2017-Aug-15 18:00N 54°51' E 010°31'2 3.3
2017-Aug-15 17:31N 54°50' E 010°33'4 7.1
2017-Aug-15 17:00N 54°47' E 010°36'4 7.4
2017-Aug-15 16:30N 54°44' E 010°39'3 6.9
2017-Aug-15 16:00N 54°42' E 010°44'4 7.9
2017-Aug-15 15:30N 54°40' E 010°50'4 8.3
2017-Aug-15 15:00N 54°38' E 010°56'4 7.9
2017-Aug-15 14:30N 54°36' E 011°02'4 7.3
2017-Aug-15 14:00N 54°34' E 011°07'3 6.3
2017-Aug-15 13:30N 54°32' E 011°12'3 5.6
2017-Aug-15 13:00N 54°31' E 011°16'3 6.7
2017-Aug-15 12:31N 54°28' E 011°19'4 7.9
2017-Aug-15 12:01N 54°25' E 011°22'4 7.5
2017-Aug-15 11:31N 54°21' E 011°19'3 5.9
2017-Aug-15 11:01N 54°19' E 011°16'3 5.0
2017-Aug-15 10:30N 54°17' E 011°14'2 3.8
2017-Aug-15 10:00N 54°15' E 011°12'2 4.3
2017-Aug-15 09:30N 54°13' E 011°11'2 4.6
2017-Aug-15 09:01N 54°11' E 011°09'3 6.1
2017-Aug-15 08:31N 54°08' E 011°06'2 4.6
2017-Aug-15 08:00N 54°06' E 011°04'3 5.2
2017-Aug-15 07:30N 54°05' E 011°01'6 0.4
2017-Aug-14 15:07N 54°04' E 011°12'1 8.2
2017-Aug-14 15:00N 54°04' E 011°13'4 8.1
2017-Aug-14 14:30N 54°06' E 011°20'4 7.9
2017-Aug-14 14:00N 54°07' E 011°26'11 7.1
2017-Aug-14 12:24N 54°10' E 011°45'4 6.6
2017-Aug-14 11:44N 54°11' E 011°52'2 6.2
2017-Aug-14 11:28N 54°11' E 011°55'9 4.5
2017-Aug-14 09:32N 54°06' E 012°07'0 5.5
2017-Aug-14 09:31N 54°06' E 012°07'0 0.8
2017-Aug-14 09:01N 54°06' E 012°07'0 0.0
2017-Aug-14 08:25N 54°06' E 012°07'0 0.0
2017-Aug-14 06:31N 54°06' E 012°07'0 0.0
2017-Aug-14 06:22N 54°06' E 012°07'0 0.0
2017-Aug-14 01:16N 54°06' E 012°07'0 0.0
2017-Aug-14 00:58N 54°06' E 012°07'0 0.0
2017-Aug-13 18:55N 54°06' E 012°07'0 0.0
2017-Aug-13 18:13N 54°06' E 012°07'0 0.0
2017-Aug-13 17:01N 54°06' E 012°07'0 0.1
2017-Aug-13 16:58N 54°06' E 012°07'0 0.0
2017-Aug-13 16:28N 54°06' E 012°07'0 0.3
2017-Aug-13 15:20N 54°06' E 012°08'2 4.9
2017-Aug-13 14:50N 54°08' E 012°06'2 6.2
2017-Aug-13 14:27N 54°10' E 012°06'3 6.0
2017-Aug-13 14:00N 54°13' E 012°06'2 3.3
2017-Aug-13 13:15N 54°10' E 012°06'1 5.2
2017-Aug-13 13:00N 54°09' E 012°06'3 4.4
2017-Aug-13 12:24N 54°06' E 012°06'1 0.4
2017-Aug-13 10:45N 54°06' E 012°07'4 7.1
2017-Aug-13 10:15N 54°10' E 012°06'2 7.2
2017-Aug-13 09:59N 54°11' E 012°05'2 4.1
2017-Aug-13 09:27N 54°14' E 012°05'2 4.4
2017-Aug-13 08:58N 54°11' E 012°05'2 4.0
2017-Aug-13 08:30N 54°10' E 012°06'3 4.2
2017-Aug-13 07:45N 54°06' E 012°06'  

Dump ship's entire track history